Time;durP1;ratioP1;P1;durP2;ratioP2;P2;SDS_P1;SDS_P2;PMS_P1;PMS_P2;Temp;Humidity;BMP_temperature;BMP_pressure;BME280_temperature;BME280_humidity;BME280_pressure;Samples;Min_cycle;Max_cycle;Signal;HPM_P1;HPM_P2
2022/09/02 00:00:06;;;;;;;;;;;21.50;71.30;;;20.84;65.42;96179.03;4237887;33;20058;-86
2022/09/02 00:02:38;;;;;;;;;;;21.50;71.40;;;20.84;65.64;96176.25;4262005;33;20311;-86
2022/09/02 00:05:08;;;;;;;;;;;21.40;71.30;;;20.85;65.57;96186.19;4261585;33;19901;-85
2022/09/02 00:07:36;;;;;;;;;;;21.50;71.40;;;20.85;65.44;96185.38;4261514;33;19909;-85
2022/09/02 00:10:06;;;;;;;;;;;21.50;71.30;;;20.85;65.56;96179.81;4262500;33;19902;-85
2022/09/02 00:12:34;;;;;;;;;;;21.40;71.20;;;20.84;65.52;96184.59;4237109;33;19970;-86
2022/09/02 00:15:04;;;;;;;;;;;21.50;71.40;;;20.84;65.42;96183.75;4262393;33;20120;-86
2022/09/02 00:17:33;;;;;;;;;;;21.40;71.10;;;20.83;65.33;96177.41;4240442;33;20032;-85
2022/09/02 00:20:04;;;;;;;;;;;21.50;71.20;;;20.84;65.50;96167.06;4263988;33;19902;-85
2022/09/02 00:22:32;;;;;;;;;;;21.40;71.20;;;20.83;65.36;96171.81;4216230;33;19902;-85
2022/09/02 00:25:01;;;;;;;;;;;21.50;71.10;;;20.83;65.45;96174.63;4240302;33;19902;-86
2022/09/02 00:27:29;;;;;;;;;;;21.40;71.00;;;20.82;65.37;96163.81;4239804;33;19909;-86
2022/09/02 00:29:58;;;;;;;;;;;21.50;71.20;;;20.81;65.58;96163.00;4265020;33;20100;-86
2022/09/02 00:32:26;;;;;;;;;;;21.50;71.40;;;20.82;65.38;96161.03;4263328;33;19908;-86
2022/09/02 00:34:57;;;;;;;;;;;21.40;71.10;;;20.81;65.58;96157.44;4265129;33;19908;-86
2022/09/02 00:37:28;;;;;;;;;;;21.40;71.30;;;20.81;65.55;96160.22;4263966;33;19902;-85
2022/09/02 00:39:56;;;;;;;;;;;21.40;71.20;;;20.81;65.61;96160.22;4264872;33;19913;-86
2022/09/02 00:42:26;;;;;;;;;;;21.50;71.40;;;20.80;65.69;96152.19;4239300;33;19902;-86
2022/09/02 00:44:54;;;;;;;;;;;21.40;71.40;;;20.80;65.57;96150.25;4240065;33;19902;-86
2022/09/02 00:47:23;;;;;;;;;;;21.40;71.30;;;20.81;65.58;96146.31;4263601;33;20170;-86
2022/09/02 00:49:53;;;;;;;;;;;21.40;71.50;;;20.80;65.39;96150.25;4239981;33;19909;-85
2022/09/02 00:52:25;;;;;;;;;;;21.40;71.10;;;20.80;65.21;96150.25;4239568;33;20125;-86
2022/09/02 00:54:57;;;;;;;;;;;21.50;71.10;;;20.79;65.41;96151.38;4263013;33;19955;-86
2022/09/02 00:57:28;;;;;;;;;;;21.40;71.10;;;20.78;65.30;96149.75;4263736;33;19998;-86
2022/09/02 01:00:01;;;;;;;;;;;21.40;71.00;;;20.80;65.13;96153.03;4263507;33;19909;-85
2022/09/02 01:02:30;;;;;;;;;;;21.40;70.90;;;20.78;65.03;96149.75;4239336;33;19921;-85
2022/09/02 01:05:02;;;;;;;;;;;21.40;70.80;;;20.79;64.97;96154.19;4263774;33;20500;-85
2022/09/02 01:07:34;;;;;;;;;;;21.40;70.90;;;20.79;65.02;96158.91;4287635;33;19902;-85
2022/09/02 01:10:05;;;;;;;;;;;21.40;70.80;;;20.78;65.23;96146.97;4312152;32;19902;-85
2022/09/02 01:12:34;;;;;;;;;;;21.40;70.90;;;20.78;65.31;96158.09;4262896;33;19902;-86
2022/09/02 01:15:04;;;;;;;;;;;21.40;71.00;;;20.77;65.08;96161.25;4263505;33;19902;-85
2022/09/02 01:17:33;;;;;;;;;;;21.40;71.00;;;20.77;65.09;96162.03;4263416;33;19909;-85
2022/09/02 01:20:05;;;;;;;;;;;21.40;70.80;;;20.77;65.19;96162.03;4263281;33;19924;-85
2022/09/02 01:22:35;;;;;;;;;;;21.40;70.90;;;20.76;65.00;96160.41;4238793;33;20122;-85
2022/09/02 01:25:06;;;;;;;;;;;21.40;70.90;;;20.78;65.04;96158.09;4264319;33;19909;-86
2022/09/02 01:27:35;;;;;;;;;;;21.40;70.80;;;20.75;65.16;96166.31;4263120;33;20026;-86
2022/09/02 01:30:05;;;;;;;;;;;21.40;70.70;;;20.76;65.11;96165.16;4239513;33;19950;-85
2022/09/02 01:32:33;;;;;;;;;;;21.40;70.80;;;20.75;64.93;96169.91;4286735;33;19901;-85
2022/09/02 01:35:02;;;;;;;;;;;21.40;70.60;;;20.74;65.21;96171.03;4263455;33;20163;-86
2022/09/02 01:37:31;;;;;;;;;;;21.40;70.80;;;20.75;65.36;96175.47;4287276;33;20373;-85
2022/09/02 01:40:02;;;;;;;;;;;21.40;70.90;;;20.76;65.43;96171.53;4287216;32;19902;-86
2022/09/02 01:42:31;;;;;;;;;;;21.40;70.80;;;20.75;65.08;96169.09;4262678;33;20037;-86
2022/09/02 01:45:00;;;;;;;;;;;21.40;70.80;;;20.75;65.04;96169.09;4239233;33;20096;-85
2022/09/02 01:47:28;;;;;;;;;;;21.40;70.80;;;20.74;64.97;96164.66;4263194;33;19902;-85
2022/09/02 01:49:57;;;;;;;;;;;21.40;70.80;;;20.73;64.94;96161.03;4263144;33;19902;-85
2022/09/02 01:52:27;;;;;;;;;;;21.40;70.80;;;20.73;65.09;96163.81;4261958;33;19901;-86
2022/09/02 01:54:56;;;;;;;;;;;21.40;70.90;;;20.73;65.02;96160.25;4239214;33;19909;-85
2022/09/02 01:57:26;;;;;;;;;;;21.30;70.90;;;20.73;65.19;96169.38;4216120;33;19927;-85
2022/09/02 01:59:55;;;;;;;;;;;21.40;70.90;;;20.73;65.02;96169.38;4263385;33;19902;-85
2022/09/02 02:02:24;;;;;;;;;;;21.40;70.90;;;20.73;65.10;96166.59;4263115;33;19902;-84
2022/09/02 02:04:53;;;;;;;;;;;21.30;70.80;;;20.73;65.32;96174.94;4239594;33;20087;-85
2022/09/02 02:07:23;;;;;;;;;;;21.40;70.90;;;20.71;65.17;96168.94;4263252;33;19909;-85
2022/09/02 02:09:52;;;;;;;;;;;21.30;70.90;;;20.72;65.11;96176.09;4263286;33;20418;-85
2022/09/02 02:12:21;;;;;;;;;;;21.30;70.80;;;20.72;64.98;96173.31;4239003;33;20150;-85
2022/09/02 02:14:51;;;;;;;;;;;21.30;70.80;;;20.71;65.03;96171.72;4249198;33;20032;-85
2022/09/02 02:17:19;;;;;;;;;;;21.30;70.80;;;20.70;65.06;96176.44;4211062;33;19917;-85
2022/09/02 02:19:48;;;;;;;;;;;21.30;70.80;;;20.70;65.09;96178.44;4187800;33;20156;-85
2022/09/02 02:22:17;;;;;;;;;;;21.30;70.90;;;20.70;64.99;96175.66;4187585;33;19902;-85
2022/09/02 02:24:45;;;;;;;;;;;21.30;70.80;;;20.70;64.99;96184.00;4234441;33;20109;-85
2022/09/02 02:27:14;;;;;;;;;;;21.30;70.70;;;20.68;65.04;96184.31;4234980;33;19909;-85
2022/09/02 02:29:43;;;;;;;;;;;21.30;70.80;;;20.70;65.04;96178.44;4210790;33;19929;-85
2022/09/02 02:32:13;;;;;;;;;;;21.30;70.80;;;20.68;65.09;96181.53;4187410;33;20334;-85
2022/09/02 02:34:42;;;;;;;;;;;21.30;70.80;;;20.68;65.03;96175.97;4187790;33;20119;-84
2022/09/02 02:37:11;;;;;;;;;;;21.30;70.80;;;20.68;64.83;96187.09;4187465;33;19902;-84
2022/09/02 02:39:40;;;;;;;;;;;21.30;70.80;;;20.67;65.15;96182.69;4187186;33;19917;-84
2022/09/02 02:42:11;;;;;;;;;;;21.30;70.80;;;20.68;65.00;96180.72;4234090;33;19902;-84
2022/09/02 02:44:40;;;;;;;;;;;21.30;70.80;;;20.68;64.94;96183.50;4187463;33;19902;-83
2022/09/02 02:47:09;;;;;;;;;;;21.30;70.80;;;20.67;64.90;96190.22;4210668;33;20025;-84
2022/09/02 02:49:39;;;;;;;;;;;21.30;70.60;;;20.66;65.11;96178.28;4211043;33;19926;-84
2022/09/02 02:52:08;;;;;;;;;;;21.30;70.70;;;20.65;65.04;96187.78;4210024;33;19902;-85
2022/09/02 02:54:37;;;;;;;;;;;21.30;70.70;;;20.66;64.89;96186.63;4254322;33;20003;-85
2022/09/02 02:57:06;;;;;;;;;;;21.30;70.60;;;20.66;64.97;96189.41;4261675;33;19991;-85
2022/09/02 02:59:36;;;;;;;;;;;21.30;70.60;;;20.66;64.92;96185.81;4262330;33;20106;-85
2022/09/02 03:02:05;;;;;;;;;;;21.30;70.70;;;20.66;64.85;96183.03;4238066;33;19909;-84
2022/09/02 03:04:35;;;;;;;;;;;21.30;70.50;;;20.64;64.98;96191.72;4262292;33;19902;-85
2022/09/02 03:07:06;;;;;;;;;;;21.20;70.60;;;20.64;64.70;96196.47;4262362;33;19909;-85
2022/09/02 03:09:34;;;;;;;;;;;21.20;70.50;;;20.65;65.08;96192.53;4286176;33;19912;-84
2022/09/02 03:12:04;;;;;;;;;;;21.20;70.70;;;20.63;64.88;96189.25;4237792;33;19991;-84
2022/09/02 03:14:33;;;;;;;;;;;21.30;70.70;;;20.63;64.98;96190.09;4262191;33;19909;-85
2022/09/02 03:17:02;;;;;;;;;;;21.30;70.60;;;20.63;64.95;96190.09;4286431;33;20099;-85
2022/09/02 03:19:31;;;;;;;;;;;21.20;70.70;;;20.63;64.80;96189.25;4238447;33;19902;-85
2022/09/02 03:22:00;;;;;;;;;;;21.30;70.60;;;20.61;64.90;96186.81;4237465;33;20031;-85
2022/09/02 03:24:30;;;;;;;;;;;21.20;70.60;;;20.62;64.88;96194.03;4262309;33;19901;-84
2022/09/02 03:26:59;;;;;;;;;;;21.20;70.60;;;20.62;64.92;96193.19;4286356;33;20092;-85
2022/09/02 03:29:27;;;;;;;;;;;21.20;70.60;;;20.61;64.78;96191.56;4238197;33;19902;-84
2022/09/02 03:31:57;;;;;;;;;;;21.20;70.50;;;20.61;64.75;96191.56;4261658;33;19902;-84
2022/09/02 03:34:25;;;;;;;;;;;21.20;70.40;;;20.60;64.88;96185.19;4238269;33;19902;-84
2022/09/02 03:36:54;;;;;;;;;;;21.20;70.50;;;20.61;64.68;96191.56;4238272;33;19979;-85
2022/09/02 03:39:23;;;;;;;;;;;21.20;70.40;;;20.59;64.68;96182.75;4262158;33;19902;-85
2022/09/02 03:41:53;;;;;;;;;;;21.20;70.50;;;20.59;64.93;96194.69;4285539;33;20084;-85
2022/09/02 03:44:22;;;;;;;;;;;21.20;70.60;;;20.58;64.76;96181.94;4261872;33;19910;-85
2022/09/02 03:46:51;;;;;;;;;;;21.20;70.50;;;20.58;65.00;96193.06;4261978;33;19924;-84
2022/09/02 03:49:19;;;;;;;;;;;21.20;70.50;;;20.57;64.85;96194.19;4261890;33;20171;-85
2022/09/02 03:51:48;;;;;;;;;;;21.20;70.50;;;20.57;65.06;96202.53;4237382;33;20106;-84
2022/09/02 03:54:16;;;;;;;;;;;21.20;70.60;;;20.57;65.07;96187.84;4262234;33;20380;-85
2022/09/02 03:56:46;;;;;;;;;;;21.20;70.50;;;20.56;64.71;96200.13;4260987;33;20019;-85
2022/09/02 03:59:17;;;;;;;;;;;21.20;70.50;;;20.56;64.76;96191.78;4238044;33;20170;-85
2022/09/02 04:01:46;;;;;;;;;;;21.20;70.40;;;20.55;64.70;96199.28;4237205;33;19902;-85
2022/09/02 04:04:16;;;;;;;;;;;21.20;70.40;;;20.54;64.56;96208.78;4237915;33;20105;-84
2022/09/02 04:06:45;;;;;;;;;;;21.20;70.40;;;20.54;64.40;96204.03;4237761;33;20125;-85
2022/09/02 04:09:13;;;;;;;;;;;21.20;70.30;;;20.54;65.04;96201.25;4310167;32;19990;-84
2022/09/02 04:11:42;;;;;;;;;;;21.20;70.40;;;20.53;64.62;96204.34;4284834;33;19902;-85
2022/09/02 04:14:11;;;;;;;;;;;21.10;70.40;;;20.53;64.79;96207.13;4285755;33;20213;-84
2022/09/02 04:16:41;;;;;;;;;;;21.20;70.40;;;20.52;64.71;96200.78;4261401;33;19909;-85
2022/09/02 04:19:10;;;;;;;;;;;21.20;70.30;;;20.51;64.66;96215.84;4260620;33;20162;-85
2022/09/02 04:21:41;;;;;;;;;;;21.20;70.40;;;20.51;64.62;96210.28;4237290;33;20111;-85
2022/09/02 04:24:11;;;;;;;;;;;21.10;70.60;;;20.51;64.85;96220.59;4237661;33;20045;-85
2022/09/02 04:26:41;;;;;;;;;;;21.10;70.60;;;20.50;64.72;96225.31;4261478;33;19901;-85
2022/09/02 04:29:10;;;;;;;;;;;21.20;70.50;;;20.50;64.93;96225.31;4261491;33;19909;-84
2022/09/02 04:31:39;;;;;;;;;;;21.10;70.50;;;20.49;64.94;96218.13;4284366;33;20054;-84
2022/09/02 04:34:09;;;;;;;;;;;21.10;70.50;;;20.50;64.85;96216.97;4285433;33;19909;-85
2022/09/02 04:36:38;;;;;;;;;;;21.20;70.40;;;20.49;64.61;96218.13;4261328;33;19902;-85
2022/09/02 04:39:09;;;;;;;;;;;21.10;70.50;;;20.50;64.54;96224.53;4237694;33;20125;-84
2022/09/02 04:41:39;;;;;;;;;;;21.20;70.40;;;20.49;65.19;96220.91;4309143;32;20079;-84
2022/09/02 04:44:10;;;;;;;;;;;21.10;70.50;;;20.47;64.63;96220.41;4261357;33;20352;-84
2022/09/02 04:46:42;;;;;;;;;;;21.10;70.40;;;20.49;64.61;96218.13;4261213;33;20007;-84
2022/09/02 04:49:17;;;;;;;;;;;21.10;70.40;;;20.49;64.49;96222.88;4261352;33;19947;-84
2022/09/02 04:51:46;;;;;;;;;;;21.10;70.40;;;20.49;64.65;96222.88;4284508;33;19910;-84
2022/09/02 04:54:16;;;;;;;;;;;21.10;70.40;;;20.48;64.53;96222.06;4237386;33;19908;-84
2022/09/02 04:56:48;;;;;;;;;;;21.10;70.40;;;20.49;64.63;96226.47;4285185;33;19902;-84
2022/09/02 04:59:20;;;;;;;;;;;21.10;70.50;;;20.48;64.41;96233.19;4284289;33;20020;-84
2022/09/02 05:01:59;;;;;;;;;;;21.10;70.30;;;20.48;64.82;96233.19;4238366;33;20051;-84
2022/09/02 05:04:32;;;;;;;;;;;21.10;70.60;;;20.49;64.78;96234.00;4263663;33;20228;-84
2022/09/02 05:07:01;;;;;;;;;;;21.10;70.50;;;20.47;64.62;96239.88;4286633;33;19909;-84
2022/09/02 05:09:32;;;;;;;;;;;21.10;70.50;;;20.48;64.56;96238.75;4263607;33;19992;-84
2022/09/02 05:12:04;;;;;;;;;;;21.10;70.40;;;20.47;64.62;96239.09;4311457;32;19908;-84
2022/09/02 05:15:00;;;;;;;;;;;21.10;71.30;;;20.45;64.68;96235.81;4261537;33;20296;-84
2022/09/02 05:17:31;;;;;;;;;;;21.10;70.50;;;20.46;64.72;96241.03;4262571;33;19902;-84
2022/09/02 05:20:03;;;;;;;;;;;21.10;70.50;;;20.46;64.81;96241.03;4287447;33;20071;-84
2022/09/02 05:22:33;;;;;;;;;;;21.10;70.50;;;20.46;64.72;96238.25;4262662;33;19901;-84
2022/09/02 05:25:04;;;;;;;;;;;21.10;70.50;;;20.45;64.68;96253.34;4264135;33;20415;-84
2022/09/02 05:27:33;;;;;;;;;;;21.10;70.40;;;20.45;64.62;96245.00;4238279;33;19925;-84
2022/09/02 05:30:02;;;;;;;;;;;21.10;70.50;;;20.45;64.74;96245.00;4239433;33;19902;-84
2022/09/02 05:32:34;;;;;;;;;;;21.10;70.50;;;20.44;64.66;96237.81;4262375;33;20105;-84
2022/09/02 05:35:05;;;;;;;;;;;21.10;70.50;;;20.43;64.68;96232.56;4263265;33;20340;-84
2022/09/02 05:37:35;;;;;;;;;;;21.10;70.50;;;20.43;64.54;96241.72;4263096;33;20044;-84
2022/09/02 05:40:06;;;;;;;;;;;21.10;70.40;;;20.43;64.56;96230.59;4286841;33;20109;-84
2022/09/02 05:42:36;;;;;;;;;;;21.10;70.50;;;20.43;64.73;96240.88;4262541;33;19998;-84
2022/09/02 05:45:07;;;;;;;;;;;21.00;70.30;;;20.43;64.56;96246.44;4286888;33;20128;-84
2022/09/02 05:47:37;;;;;;;;;;;21.00;71.20;;;20.42;64.72;96251.22;4262765;33;20125;-84
2022/09/02 05:50:08;;;;;;;;;;;21.00;70.30;;;20.42;64.86;96245.66;4311479;32;19960;-84
2022/09/02 05:52:38;;;;;;;;;;;21.00;70.40;;;20.42;64.65;96239.25;4286678;33;19908;-84
2022/09/02 05:55:08;;;;;;;;;;;21.00;70.40;;;20.42;64.78;96244.81;4239043;33;20105;-84
2022/09/02 05:57:40;;;;;;;;;;;21.00;70.40;;;20.42;64.79;96253.16;4214646;33;19910;-84
2022/09/02 06:00:12;;;;;;;;;;;21.00;70.40;;;20.42;64.80;96251.22;4262876;33;19901;-85
2022/09/02 06:02:43;;;;;;;;;;;21.00;70.50;;;20.39;64.69;96247.16;4237633;33;20145;-85
2022/09/02 06:05:21;;;;;;;;;;;21.00;70.50;;;20.39;64.74;96249.09;4210896;33;19951;-85
2022/09/02 06:07:57;;;;;;;;;;;21.10;70.50;;;20.39;64.59;96244.38;4210636;33;20214;-85
2022/09/02 06:10:26;;;;;;;;;;;21.00;70.30;;;20.39;64.91;96251.88;4210578;33;19990;-85
2022/09/02 06:12:55;;;;;;;;;;;21.00;70.30;;;20.38;64.43;96258.59;4211466;33;20275;-84
2022/09/02 06:15:29;;;;;;;;;;;21.00;70.20;;;20.39;64.59;96254.66;4262961;33;20149;-85
2022/09/02 06:18:00;;;;;;;;;;;21.00;70.30;;;20.38;64.85;96253.03;4215259;33;19909;-85
2022/09/02 06:20:31;;;;;;;;;;;21.00;70.30;;;20.36;64.52;96258.09;4262777;33;19909;-85
2022/09/02 06:23:02;;;;;;;;;;;21.00;70.00;;;20.36;64.69;96260.88;4238187;33;19909;-84
2022/09/02 06:25:31;;;;;;;;;;;21.00;70.20;;;20.36;64.61;96260.88;4215242;33;19901;-84
2022/09/02 06:28:00;;;;;;;;;;;21.00;70.30;;;20.36;64.55;96261.72;4215170;33;20082;-84
2022/09/02 06:30:29;;;;;;;;;;;21.00;70.40;;;20.36;64.67;96266.44;4238116;33;19944;-85
2022/09/02 06:32:58;;;;;;;;;;;21.00;70.40;;;20.36;64.66;96269.22;4209538;33;20067;-84
2022/09/02 06:35:28;;;;;;;;;;;21.00;70.30;;;20.36;64.21;96269.22;4258448;33;19901;-84
2022/09/02 06:38:00;;;;;;;;;;;21.00;70.10;;;20.35;64.66;96270.34;4215105;33;20476;-85
2022/09/02 06:40:29;;;;;;;;;;;21.00;70.20;;;20.35;64.58;96273.13;4238706;33;19905;-84
2022/09/02 06:42:58;;;;;;;;;;;21.00;70.30;;;20.35;64.44;96270.34;4214214;33;20327;-84
2022/09/02 06:45:32;;;;;;;;;;;21.00;70.20;;;20.34;64.54;96277.06;4187080;33;20022;-84
2022/09/02 06:48:04;;;;;;;;;;;21.00;70.20;;;20.34;64.22;96277.06;4233776;33;19909;-84
2022/09/02 06:50:39;;;;;;;;;;;21.00;70.20;;;20.35;64.67;96278.69;4233637;33;20299;-84
2022/09/02 06:53:09;;;;;;;;;;;21.00;70.30;;;20.34;64.67;96282.63;4212539;33;19906;-84
2022/09/02 06:55:42;;;;;;;;;;;21.00;70.20;;;20.33;64.38;96281.03;4233913;33;20295;-84
2022/09/02 06:58:11;;;;;;;;;;;21.00;70.10;;;20.34;64.64;96279.84;4209443;33;20295;-84
2022/09/02 07:00:41;;;;;;;;;;;21.00;70.20;;;20.33;64.47;96275.47;4256976;33;19902;-85
2022/09/02 07:06:02;;;;;;;;;;;21.00;70.30;;;20.32;64.55;96282.16;4281525;33;20082;-85
2022/09/02 07:08:33;;;;;;;;;;;20.90;70.30;;;20.33;64.37;96278.25;4270177;33;19902;-85
2022/09/02 07:11:03;;;;;;;;;;;20.90;70.10;;;20.32;64.56;96282.97;4237769;33;20102;-84
2022/09/02 07:13:32;;;;;;;;;;;21.00;70.30;;;20.32;64.15;96282.97;4262101;33;19987;-84
2022/09/02 07:16:02;;;;;;;;;;;20.90;70.00;;;20.32;64.47;96277.41;4238374;33;19925;-84
2022/09/02 07:18:31;;;;;;;;;;;21.00;70.20;;;20.31;64.39;96277.75;4261015;33;19903;-84
2022/09/02 07:21:00;;;;;;;;;;;21.00;70.10;;;20.32;64.32;96279.38;4284884;33;20213;-84
2022/09/02 07:23:28;;;;;;;;;;;21.00;70.10;;;20.31;64.74;96278.56;4237518;33;20184;-84
2022/09/02 07:25:59;;;;;;;;;;;21.00;70.00;;;20.31;64.66;96288.88;4286327;33;19901;-84
2022/09/02 07:28:27;;;;;;;;;;;20.90;70.20;;;20.32;64.48;96279.38;4261675;33;19905;-84
2022/09/02 07:30:56;;;;;;;;;;;20.90;70.10;;;20.31;64.23;96284.13;4309854;32;19906;-84
2022/09/02 07:33:24;;;;;;;;;;;20.90;69.90;;;20.32;64.21;96284.94;4261622;33;20096;-84
2022/09/02 07:35:53;;;;;;;;;;;20.90;69.90;;;20.31;64.30;96286.09;4261884;33;20120;-85
2022/09/02 07:38:23;;;;;;;;;;;20.90;70.10;;;20.31;64.22;96283.31;4261643;33;19901;-84
2022/09/02 07:40:51;;;;;;;;;;;21.00;69.90;;;20.31;64.59;96288.88;4284654;33;19955;-85
2022/09/02 07:43:22;;;;;;;;;;;20.90;70.00;;;20.29;64.42;96286.41;4261798;33;19909;-84
2022/09/02 07:45:52;;;;;;;;;;;20.90;69.90;;;20.29;64.17;96285.59;4261603;33;20318;-84
2022/09/02 07:48:21;;;;;;;;;;;20.90;69.90;;;20.30;64.18;96281.69;4261569;33;20073;-84
2022/09/02 07:50:49;;;;;;;;;;;20.90;69.90;;;20.29;64.26;96285.59;4237432;33;19917;-85
2022/09/02 07:53:19;;;;;;;;;;;20.90;69.90;;;20.29;64.18;96280.03;4237446;33;19902;-85
2022/09/02 07:55:48;;;;;;;;;;;20.90;70.00;;;20.28;64.19;96283.97;4261239;33;20015;-84
2022/09/02 07:58:19;;;;;;;;;;;20.90;69.90;;;20.27;64.43;96272.03;4261498;33;19909;-84
2022/09/02 08:00:50;;;;;;;;;;;20.90;70.20;;;20.27;64.15;96276.78;4236886;33;19910;-84
2022/09/02 08:03:20;;;;;;;;;;;20.90;70.80;;;20.27;64.25;96279.56;4237733;33;19902;-84
2022/09/02 08:05:56;;;;;;;;;;;20.90;70.00;;;20.27;64.34;96276.78;4261722;33;19918;-84
2022/09/02 08:08:27;;;;;;;;;;;20.90;70.20;;;20.27;64.56;96283.13;4261533;33;19908;-84
2022/09/02 08:10:56;;;;;;;;;;;20.90;70.20;;;20.26;64.54;96280.69;4237375;33;19909;-84
2022/09/02 08:13:24;;;;;;;;;;;20.90;70.10;;;20.24;64.41;96279.06;4260342;33;19921;-84
2022/09/02 08:15:54;;;;;;;;;;;20.90;69.90;;;20.24;64.97;96276.28;4285710;33;20237;-85
2022/09/02 08:18:23;;;;;;;;;;;20.90;70.30;;;20.24;64.37;96275.50;4261256;33;20077;-85
2022/09/02 08:20:52;;;;;;;;;;;20.90;70.20;;;20.24;64.32;96279.06;4260746;33;20157;-84
2022/09/02 08:23:21;;;;;;;;;;;20.90;70.20;;;20.23;64.29;96277.44;4285378;33;19909;-84
2022/09/02 08:25:49;;;;;;;;;;;20.90;69.90;;;20.23;64.24;96283.00;4237473;33;20156;-84
2022/09/02 08:28:18;;;;;;;;;;;20.90;70.10;;;20.22;64.42;96289.69;4261930;33;19943;-85
2022/09/02 08:30:46;;;;;;;;;;;20.90;70.20;;;20.22;64.59;96275.78;4261030;33;20137;-84
2022/09/02 08:33:16;;;;;;;;;;;20.90;70.10;;;20.22;64.49;96275.78;4261119;33;19990;-84
2022/09/02 08:35:45;;;;;;;;;;;20.90;70.20;;;20.21;64.48;96274.16;4237497;33;19909;-84
2022/09/02 08:38:13;;;;;;;;;;;20.90;70.20;;;20.21;64.59;96276.94;4312307;32;19925;-84
2022/09/02 08:40:42;;;;;;;;;;;20.90;70.10;;;20.22;64.30;96272.22;4262648;33;19941;-85
2022/09/02 08:43:25;;;;;;;;;;;20.90;70.00;;;20.20;64.16;96272.53;4287598;33;20381;-85
2022/09/02 08:45:54;;;;;;;;;;;20.90;69.90;;;20.19;64.26;96270.94;4263554;33;19901;-84
2022/09/02 08:48:29;;;;;;;;;;;20.80;69.80;;;20.19;64.22;96262.59;4263888;33;19901;-85
2022/09/02 08:51:01;;;;;;;;;;;20.90;70.00;;;20.19;64.51;96270.09;4279233;33;19979;-84
2022/09/02 08:53:32;;;;;;;;;;;20.90;70.10;;;20.18;64.01;96260.94;4235964;33;20125;-85
2022/09/02 08:56:01;;;;;;;;;;;20.80;69.60;;;20.19;64.09;96259.81;4234870;33;20229;-84
2022/09/02 08:58:36;;;;;;;;;;;20.80;69.90;;;20.18;64.43;96252.63;4249327;33;19901;-84
2022/09/02 09:01:09;;;;;;;;;;;20.80;69.90;;;20.18;64.21;96258.19;4238307;33;20158;-84
2022/09/02 09:03:45;;;;;;;;;;;20.80;69.90;;;20.18;64.50;96260.13;4287509;33;19901;-84
2022/09/02 09:06:16;;;;;;;;;;;20.80;70.00;;;20.18;64.55;96262.91;4287655;33;19902;-85
2022/09/02 09:08:49;;;;;;;;;;;20.80;70.10;;;20.18;64.48;96265.69;4262752;33;19972;-85
2022/09/02 09:11:22;;;;;;;;;;;20.80;70.00;;;20.16;64.49;96260.47;4239264;33;20006;-84
2022/09/02 09:14:00;;;;;;;;;;;20.80;70.00;;;20.17;64.67;96278.78;4264442;33;19976;-85
2022/09/02 09:16:39;;;;;;;;;;;20.80;70.10;;;20.17;64.48;96273.22;4238471;33;20131;-84
2022/09/02 09:19:13;;;;;;;;;;;20.80;70.00;;;20.17;64.06;96266.81;4263431;33;19949;-84
2022/09/02 09:21:41;;;;;;;;;;;20.80;69.80;;;20.17;64.44;96264.03;4262815;33;20161;-84
2022/09/02 09:24:22;;;;;;;;;;;20.80;70.00;;;20.16;64.59;96271.59;4215138;33;20027;-85
2022/09/02 09:26:51;;;;;;;;;;;20.80;69.90;;;20.16;64.28;96271.59;4239595;33;19906;-84
2022/09/02 09:29:19;;;;;;;;;;;20.80;70.00;;;20.16;64.48;96266.03;4211082;33;19909;-84
2022/09/02 09:31:53;;;;;;;;;;;20.80;70.10;;;20.16;64.40;96267.97;4250847;33;20072;-84
2022/09/02 09:34:23;;;;;;;;;;;20.80;70.20;;;20.16;64.50;96268.81;4239245;33;19902;-85
2022/09/02 09:36:53;;;;;;;;;;;20.80;70.00;;;20.16;64.52;96259.63;4287258;33;20030;-84
2022/09/02 09:39:25;;;;;;;;;;;20.80;70.10;;;20.16;64.51;96265.19;4264132;33;20303;-84
2022/09/02 09:41:54;;;;;;;;;;;20.80;70.10;;;20.15;64.56;96264.38;4238740;33;19909;-84
2022/09/02 09:44:43;;;;;;;;;;;20.80;70.30;;;20.15;64.63;96264.38;4263887;33;19964;-84
2022/09/02 09:47:18;;;;;;;;;;;20.80;70.30;;;20.16;64.75;96254.06;4239145;33;20605;-84
2022/09/02 09:49:49;;;;;;;;;;;20.80;70.30;;;20.16;64.42;96254.06;4239021;33;19924;-84
2022/09/02 09:52:26;;;;;;;;;;;20.80;70.20;;;20.15;64.57;96258.81;4263597;33;20133;-84
2022/09/02 09:55:18;;;;;;;;;;;20.80;70.20;;;20.15;64.40;96250.50;4263098;33;20217;-84
2022/09/02 09:57:49;;;;;;;;;;;20.80;70.20;;;20.14;64.31;96248.84;4259646;33;20061;-84
2022/09/02 10:00:23;;;;;;;;;;;20.80;70.10;;;20.13;64.38;96250.00;4286971;33;19954;-84
2022/09/02 10:02:55;;;;;;;;;;;20.80;69.90;;;20.14;64.29;96246.06;4286718;33;20133;-83
2022/09/02 10:05:34;;;;;;;;;;;20.80;69.90;;;20.14;64.40;96248.06;4239138;33;20136;-84
2022/09/02 10:08:04;;;;;;;;;;;20.80;70.00;;;20.13;64.46;96247.22;4263237;33;19901;-84
2022/09/02 10:10:34;;;;;;;;;;;20.80;70.10;;;20.12;64.38;96245.59;4263001;33;20234;-83
2022/09/02 10:13:19;;;;;;;;;;;20.80;70.20;;;20.12;64.36;96240.03;4239046;33;19909;-83
2022/09/02 10:16:00;;;;;;;;;;;20.80;70.00;;;20.11;64.08;96240.38;4238868;33;20319;-84
2022/09/02 10:18:32;;;;;;;;;;;20.80;70.00;;;20.12;64.44;96242.81;4311206;32;19966;-84
2022/09/02 10:21:07;;;;;;;;;;;20.80;70.10;;;20.12;64.68;96230.91;4263420;33;20072;-84
2022/09/02 10:23:47;;;;;;;;;;;20.80;70.20;;;20.11;63.97;96235.63;4262983;33;19908;-84
2022/09/02 10:26:25;;;;;;;;;;;20.80;69.70;;;20.11;64.54;96227.28;4262539;33;20007;-84
2022/09/02 10:29:44;;;;;;;;;;;20.80;70.20;;;20.11;64.53;96223.69;4238813;33;19976;-85
2022/09/02 10:32:54;;;;;;;;;;;20.70;70.00;;;20.08;64.04;96231.53;4231815;33;20002;-85
2022/09/02 10:35:28;;;;;;;;;;;20.70;69.90;;;20.08;64.31;96231.53;4224904;33;19903;-85
2022/09/02 10:38:11;;;;;;;;;;;20.70;70.00;;;20.07;64.17;96223.56;4262711;33;19909;-85
2022/09/02 10:40:44;;;;;;;;;;;20.70;69.90;;;20.07;63.97;96234.66;4263430;33;19902;-84
2022/09/02 10:43:26;;;;;;;;;;;20.70;69.90;;;20.08;64.51;96219.59;4262459;33;20221;-84
2022/09/02 10:45:58;;;;;;;;;;;20.70;69.90;;;20.07;64.33;96215.22;4210568;33;20083;-85
2022/09/02 10:48:35;;;;;;;;;;;20.70;70.10;;;20.06;64.60;96213.59;4273062;33;19927;-85
2022/09/02 10:51:06;;;;;;;;;;;20.70;70.20;;;20.04;64.51;96222.22;4262811;33;20129;-85
2022/09/02 10:53:58;;;;;;;;;;;20.70;70.30;;;20.04;64.51;96219.44;4238460;33;20008;-85
2022/09/02 10:56:30;;;;;;;;;;;20.70;70.10;;;20.05;64.26;96214.72;4261469;33;20105;-85
2022/09/02 10:59:02;;;;;;;;;;;20.70;69.90;;;20.04;64.47;96213.09;4261789;33;19985;-85
2022/09/02 11:01:32;;;;;;;;;;;20.70;69.80;;;20.04;64.09;96213.91;4261555;33;19909;-85
2022/09/02 11:04:08;;;;;;;;;;;20.70;69.90;;;20.04;64.10;96224.22;4286682;33;20004;-85
2022/09/02 11:06:39;;;;;;;;;;;20.70;69.60;;;20.03;64.65;96225.34;4262281;33;19902;-85
2022/09/02 11:09:12;;;;;;;;;;;20.70;69.90;;;20.02;64.30;96226.50;4238718;33;20124;-85
2022/09/02 11:11:42;;;;;;;;;;;20.70;69.90;;;20.03;64.60;96222.56;4262841;33;20022;-85
2022/09/02 11:14:17;;;;;;;;;;;20.70;69.90;;;20.02;63.94;96218.16;4238559;33;19902;-86
2022/09/02 11:16:50;;;;;;;;;;;20.70;69.80;;;20.00;64.12;96218.50;4238506;33;19902;-86
2022/09/02 11:19:21;;;;;;;;;;;20.70;70.00;;;20.01;64.24;96224.88;4262185;33;20154;-85
2022/09/02 11:21:55;;;;;;;;;;;20.70;70.00;;;20.01;64.22;96214.56;4261619;33;19901;-85
2022/09/02 11:24:30;;;;;;;;;;;20.70;69.70;;;20.01;64.17;96216.53;4238360;33;19901;-85
2022/09/02 11:27:04;;;;;;;;;;;20.70;69.90;;;20.00;64.67;96218.50;4262127;33;19909;-86
2022/09/02 11:29:47;;;;;;;;;;;20.70;70.00;;;20.00;64.07;96212.94;4238386;33;19902;-85
2022/09/02 11:32:18;;;;;;;;;;;20.60;69.90;;;20.00;64.50;96212.13;4261428;33;19909;-83
2022/09/02 11:34:49;;;;;;;;;;;20.60;70.00;;;19.99;64.31;96202.97;4237276;33;19902;-83
2022/09/02 11:37:29;;;;;;;;;;;20.60;69.70;;;19.99;64.17;96199.38;4256250;33;19901;-84